createdAt,value
2022-10-16T00:02:24.635Z,11.72
2022-10-16T00:07:28.645Z,11.72
2022-10-16T00:12:32.067Z,11.73
2022-10-16T00:17:35.319Z,11.77
2022-10-16T00:22:38.592Z,11.75
2022-10-16T00:27:41.940Z,11.71
2022-10-16T00:32:45.182Z,11.63
2022-10-16T00:37:48.408Z,11.57
2022-10-16T00:42:51.658Z,11.52
2022-10-16T00:48:00.723Z,11.53
2022-10-16T00:53:13.006Z,11.59
2022-10-16T00:58:17.114Z,11.68
2022-10-16T01:03:26.713Z,11.76
2022-10-16T01:08:46.615Z,11.84
2022-10-16T01:13:55.293Z,11.89
2022-10-16T01:19:15.919Z,11.93
2022-10-16T01:24:41.195Z,12.01
2022-10-16T01:29:57.002Z,12.08
2022-10-16T01:35:13.739Z,12.13
2022-10-16T01:40:18.934Z,12.13
2022-10-16T01:45:22.851Z,12.07
2022-10-16T01:50:26.617Z,12.06
2022-10-16T01:55:34.283Z,12.08
2022-10-16T02:00:39.934Z,12.12
2022-10-16T02:05:54.350Z,12.16
2022-10-16T02:10:59.160Z,12.20
2022-10-16T02:16:02.437Z,12.25
2022-10-16T02:21:17.955Z,12.31
2022-10-16T02:26:30.070Z,12.37
2022-10-16T02:31:36.003Z,12.40
2022-10-16T02:36:40.683Z,12.42
2022-10-16T02:41:43.949Z,12.43
2022-10-16T02:46:47.302Z,12.44
2022-10-16T02:51:50.431Z,12.45
2022-10-16T02:56:53.614Z,12.43
2022-10-16T03:01:56.841Z,12.40
2022-10-16T03:07:00.241Z,12.36
2022-10-16T03:12:03.638Z,12.31
2022-10-16T03:17:07.481Z,12.26
2022-10-16T03:22:10.775Z,12.21
2022-10-16T03:27:14.005Z,12.18
2022-10-16T03:32:17.355Z,12.17
2022-10-16T03:37:20.639Z,12.15
2022-10-16T03:42:23.863Z,12.16
2022-10-16T03:47:27.392Z,12.21
2022-10-16T03:52:31.691Z,12.28
2022-10-16T03:57:34.976Z,12.35
2022-10-16T04:02:38.188Z,12.41
2022-10-16T04:07:41.433Z,12.47
2022-10-16T04:12:44.647Z,12.48
2022-10-16T04:17:48.290Z,12.50
2022-10-16T04:22:51.507Z,12.52
2022-10-16T04:27:55.380Z,12.51
2022-10-16T04:32:58.636Z,12.44
2022-10-16T04:38:01.873Z,12.35
2022-10-16T04:43:05.919Z,12.30
2022-10-16T04:48:09.153Z,12.29
2022-10-16T04:53:12.402Z,12.31
2022-10-16T04:58:15.539Z,12.32
2022-10-16T05:03:18.832Z,12.37
2022-10-16T05:08:22.278Z,12.42
2022-10-16T05:13:25.566Z,12.46
2022-10-16T05:18:30.025Z,12.49
2022-10-16T05:23:35.336Z,12.49
2022-10-16T05:28:38.635Z,12.49
2022-10-16T05:33:42.378Z,12.48
2022-10-16T05:38:47.161Z,12.45
2022-10-16T05:43:53.020Z,12.46
2022-10-16T05:48:57.397Z,12.50
2022-10-16T05:54:00.717Z,12.56
2022-10-16T05:59:07.483Z,12.62
2022-10-16T06:09:22.360Z,12.75
2022-10-16T06:14:25.908Z,12.85
2022-10-16T06:19:29.240Z,12.95
2022-10-16T06:24:32.609Z,13.07
2022-10-16T06:29:46.344Z,13.21
2022-10-16T06:34:55.179Z,13.38
2022-10-16T06:39:58.462Z,13.54
2022-10-16T06:45:05.422Z,13.72
2022-10-16T06:50:11.657Z,13.96
2022-10-16T06:55:18.423Z,14.19
2022-10-16T07:05:25.934Z,14.50
2022-10-16T07:10:29.123Z,14.61
2022-10-16T07:15:33.525Z,14.73
2022-10-16T07:20:36.836Z,14.85
2022-10-16T07:25:40.436Z,15.00
2022-10-16T07:30:46.880Z,15.17
2022-10-16T07:35:56.498Z,15.43
2022-10-16T07:41:04.496Z,15.63
2022-10-16T07:46:11.841Z,15.72
2022-10-16T07:51:17.610Z,15.85
2022-10-16T07:56:22.054Z,15.91
2022-10-16T08:01:28.617Z,15.96
2022-10-16T08:06:37.016Z,16.05
2022-10-16T08:11:40.473Z,16.19
2022-10-16T08:16:43.622Z,16.40
2022-10-16T08:21:51.917Z,16.63
2022-10-16T08:26:55.857Z,16.80
2022-10-16T08:32:02.096Z,16.86
2022-10-16T08:37:05.510Z,16.89
2022-10-16T08:42:14.426Z,16.97
2022-10-16T08:47:24.730Z,17.05
2022-10-16T08:52:32.279Z,17.23
2022-10-16T08:57:35.562Z,17.50
2022-10-16T09:02:40.540Z,17.72
2022-10-16T09:08:13.335Z,17.86
2022-10-16T09:13:28.502Z,18.00
2022-10-16T09:19:06.505Z,18.16
2022-10-16T09:24:18.198Z,18.31
2022-10-16T09:29:23.005Z,18.33
2022-10-16T09:34:33.610Z,18.30
2022-10-16T09:39:55.359Z,18.29
2022-10-16T09:45:02.535Z,18.37
2022-10-16T09:50:27.707Z,18.57
2022-10-16T09:55:33.037Z,18.87
2022-10-16T10:00:43.462Z,19.19
2022-10-16T10:05:50.250Z,19.40
2022-10-16T10:10:58.827Z,19.75
2022-10-16T10:16:04.142Z,20.07
2022-10-16T10:21:16.136Z,20.32
2022-10-16T10:26:22.530Z,20.49
2022-10-16T10:31:36.648Z,20.70
2022-10-16T10:36:41.724Z,20.86
2022-10-16T10:42:00.389Z,21.18
2022-10-16T10:47:06.657Z,21.38
2022-10-16T10:52:33.094Z,21.54
2022-10-16T10:58:00.795Z,21.69
2022-10-16T11:03:43.432Z,21.70
2022-10-16T11:08:51.316Z,21.88
2022-10-16T11:14:04.277Z,22.23
2022-10-16T11:19:40.758Z,22.55
2022-10-16T11:24:48.491Z,22.89
2022-10-16T11:30:04.880Z,22.91
2022-10-16T11:35:18.609Z,22.79
2022-10-16T11:40:36.956Z,22.64
2022-10-16T11:45:44.431Z,22.51
2022-10-16T11:51:09.546Z,22.30
2022-10-16T11:56:15.292Z,22.23
2022-10-16T12:01:36.639Z,22.25
2022-10-16T12:07:07.092Z,22.17
2022-10-16T12:12:38.862Z,22.07
2022-10-16T12:17:42.502Z,22.02
2022-10-16T12:22:51.919Z,21.95
2022-10-16T12:27:59.614Z,21.81
2022-10-16T12:33:23.398Z,21.72
2022-10-16T12:38:39.108Z,21.76
2022-10-16T12:43:49.294Z,21.77
2022-10-16T12:49:16.344Z,21.71
2022-10-16T12:54:42.964Z,21.66
2022-10-16T13:00:47.294Z,21.69
2022-10-16T13:06:07.820Z,21.69
2022-10-16T13:11:21.364Z,21.49
2022-10-16T13:16:32.299Z,21.38
2022-10-16T13:22:22.937Z,21.32
2022-10-16T13:27:38.445Z,21.21
2022-10-16T13:32:42.001Z,21.19
2022-10-16T13:37:48.515Z,21.17
2022-10-16T13:42:53.909Z,21.18
2022-10-16T13:48:04.803Z,21.14
2022-10-16T13:53:16.929Z,21.11
2022-10-16T13:58:21.041Z,21.21
2022-10-16T14:03:25.595Z,21.30
2022-10-16T14:08:31.007Z,21.24
2022-10-16T14:13:45.268Z,21.13
2022-10-16T14:18:56.344Z,21.00
2022-10-16T14:24:13.656Z,20.91
2022-10-16T14:29:21.117Z,20.87
2022-10-16T14:34:38.770Z,20.77
2022-10-16T14:39:45.793Z,20.66
2022-10-16T14:44:56.806Z,20.55
2022-10-16T14:50:01.145Z,20.48
2022-10-16T14:55:05.529Z,20.39
2022-10-16T15:00:18.407Z,20.33
2022-10-16T15:05:28.414Z,20.21
2022-10-16T15:10:44.682Z,20.10
2022-10-16T15:15:50.465Z,19.96
2022-10-16T15:20:54.066Z,19.81
2022-10-16T15:25:58.133Z,19.61
2022-10-16T15:31:01.548Z,19.37
2022-10-16T15:36:05.215Z,19.11
2022-10-16T15:41:09.018Z,18.89
2022-10-16T15:46:18.808Z,18.69
2022-10-16T15:51:28.416Z,18.45
2022-10-16T15:56:34.818Z,18.23
2022-10-16T16:01:43.483Z,17.99
2022-10-16T16:06:52.518Z,17.76
2022-10-16T16:12:03.838Z,17.55
2022-10-16T16:22:54.349Z,17.25
2022-10-16T16:28:06.978Z,17.08
2022-10-16T16:33:15.251Z,16.91
2022-10-16T16:38:21.032Z,16.72
2022-10-16T16:43:26.138Z,16.58
2022-10-16T16:48:30.780Z,16.46
2022-10-16T16:53:36.197Z,16.37
2022-10-16T16:58:44.661Z,16.29
2022-10-16T17:03:53.317Z,16.20
2022-10-16T17:08:56.838Z,16.07
2022-10-16T17:14:17.831Z,15.94
2022-10-16T17:19:24.062Z,15.79
2022-10-16T17:24:29.286Z,15.63
2022-10-16T17:29:40.873Z,15.51
2022-10-16T17:35:07.525Z,15.45
2022-10-16T17:40:17.013Z,15.42
2022-10-16T17:45:21.779Z,15.39
2022-10-16T17:50:30.866Z,15.32
2022-10-16T17:55:44.504Z,15.25
2022-10-16T18:00:52.953Z,15.16
2022-10-16T18:05:59.979Z,15.06
2022-10-16T18:11:11.659Z,15.01
2022-10-16T18:16:25.900Z,14.98
2022-10-16T18:21:31.792Z,14.92
2022-10-16T18:26:38.182Z,14.86
2022-10-16T18:31:53.748Z,14.81
2022-10-16T18:37:11.010Z,14.77
2022-10-16T18:42:16.253Z,14.71
2022-10-16T18:47:25.131Z,14.67
2022-10-16T18:52:32.839Z,14.63
2022-10-16T18:57:39.086Z,14.54
2022-10-16T19:02:46.741Z,14.50
2022-10-16T19:07:57.746Z,14.43
2022-10-16T19:13:08.904Z,14.44
2022-10-16T19:18:26.729Z,14.40
2022-10-16T19:23:38.106Z,14.30
2022-10-16T19:28:47.381Z,14.23
2022-10-16T19:34:24.420Z,14.16
2022-10-16T19:39:41.653Z,14.09
2022-10-16T19:44:46.731Z,14.03
2022-10-16T19:49:57.029Z,13.95
2022-10-16T19:55:16.987Z,13.89
2022-10-16T20:00:25.963Z,13.85
2022-10-16T20:05:34.067Z,13.80
2022-10-16T20:10:46.555Z,13.82
2022-10-16T20:16:15.383Z,13.77
2022-10-16T20:21:26.216Z,13.70
2022-10-16T20:26:36.987Z,13.60
2022-10-16T20:31:46.496Z,13.50
2022-10-16T20:37:02.594Z,13.34
2022-10-16T20:42:16.316Z,13.16
2022-10-16T20:47:30.068Z,13.10
2022-10-16T20:52:42.634Z,13.11
2022-10-16T20:57:49.628Z,13.07
2022-10-16T21:02:54.295Z,12.95
2022-10-16T21:08:07.277Z,12.83
2022-10-16T21:13:17.390Z,12.72
2022-10-16T21:18:35.091Z,12.59
2022-10-16T21:23:59.345Z,12.51
2022-10-16T21:29:16.073Z,12.44
2022-10-16T21:34:31.895Z,12.42
2022-10-16T21:39:45.837Z,12.43
2022-10-16T21:44:51.708Z,12.40
2022-10-16T21:50:12.034Z,12.33
2022-10-16T21:55:44.693Z,12.24
2022-10-16T22:01:23.149Z,12.13
2022-10-16T22:06:41.476Z,12.13
2022-10-16T22:12:07.773Z,12.06
2022-10-16T22:17:35.197Z,11.98
2022-10-16T22:22:38.607Z,11.91
2022-10-16T22:27:53.851Z,11.89
2022-10-16T22:33:00.407Z,11.91
2022-10-16T22:38:08.404Z,11.96
2022-10-16T22:43:11.951Z,11.92
2022-10-16T22:48:15.467Z,11.81
2022-10-16T22:53:22.779Z,11.74
2022-10-16T22:58:26.343Z,11.66
2022-10-16T23:03:38.559Z,11.57
2022-10-16T23:08:43.233Z,11.48
2022-10-16T23:13:46.944Z,11.40
2022-10-16T23:18:50.822Z,11.37
2022-10-16T23:23:58.930Z,11.41
2022-10-16T23:29:02.774Z,11.49
2022-10-16T23:34:11.238Z,11.63
2022-10-16T23:39:14.674Z,11.66
2022-10-16T23:44:18.207Z,11.62
2022-10-16T23:49:21.987Z,11.54
2022-10-16T23:54:30.227Z,11.40
2022-10-16T23:59:38.081Z,11.26
